Time;durP1;ratioP1;P1;durP2;ratioP2;P2;SDS_P1;SDS_P2;PMS_P1;PMS_P2;Temp;Humidity;BMP_temperature;BMP_pressure;BME280_temperature;BME280_humidity;BME280_pressure;Samples;Min_cycle;Max_cycle;Signal;HPM_P1;HPM_P2
2022/01/10 00:00:44;;;;;;;17.08;10.63;;;;;;;2.15;70.07;98339.09;5088410;28;20067;-66
2022/01/10 00:03:12;;;;;;;9.77;5.88;;;;;;;2.14;69.60;98326.91;5087777;28;20212;-66
2022/01/10 00:05:44;;;;;;;7.30;4.95;;;;;;;2.11;69.64;98335.72;5088040;28;20058;-66
2022/01/10 00:08:14;;;;;;;6.65;4.53;;;;;;;2.09;69.71;98332.31;5087965;28;20040;-66
2022/01/10 00:10:44;;;;;;;5.20;3.28;;;;;;;2.07;69.50;98335.91;5087892;28;20044;-65
2022/01/10 00:13:13;;;;;;;6.32;3.33;;;;;;;2.04;70.40;98338.63;5087881;28;20045;-66
2022/01/10 00:15:44;;;;;;;6.22;3.30;;;;;;;1.85;69.77;98309.72;5088038;28;20083;-66
2022/01/10 00:18:15;;;;;;;5.85;3.28;;;;;;;2.10;69.46;98343.63;5087849;28;20036;-66
2022/01/10 00:20:45;;;;;;;4.68;3.65;;;;;;;2.07;70.13;98349.81;5087821;28;20103;-66
2022/01/10 00:23:14;;;;;;;6.28;3.83;;;;;;;2.07;70.00;98348.97;5087966;28;20040;-66
2022/01/10 00:25:44;;;;;;;3.95;3.05;;;;;;;2.05;69.83;98348.16;5087731;28;20208;-65
2022/01/10 00:28:14;;;;;;;5.25;3.13;;;;;;;2.03;69.92;98358.69;5087610;28;20041;-66
2022/01/10 00:30:45;;;;;;;5.05;3.20;;;;;;;2.05;69.86;98350.78;5087821;28;20049;-66
2022/01/10 00:33:15;;;;;;;8.35;3.80;;;;;;;2.05;69.88;98356.00;5087758;28;20040;-66
2022/01/10 00:35:47;;;;;;;4.90;3.17;;;;;;;1.82;69.67;98313.28;5087743;28;20318;-66
2022/01/10 00:38:15;;;;;;;5.38;4.05;;;;;;;2.07;69.52;98359.41;5087649;28;20048;-66
2022/01/10 00:40:49;;;;;;;5.10;3.20;;;;;;;2.06;69.67;98360.34;5087396;28;20048;-66
2022/01/10 00:43:17;;;;;;;7.45;3.40;;;;;;;2.08;69.25;98366.34;5087431;28;20048;-65
2022/01/10 00:45:46;;;;;;;6.53;3.30;;;;;;;2.08;69.60;98367.22;5087331;28;20199;-65
2022/01/10 00:48:16;;;;;;;5.05;3.20;;;;;;;2.07;69.77;98367.25;5087542;28;20204;-65
2022/01/10 00:50:48;;;;;;;5.50;3.25;;;;;;;2.08;69.54;98372.44;5087193;28;20042;-66
2022/01/10 00:53:17;;;;;;;7.30;3.40;;;;;;;2.09;69.50;98368.91;5086882;28;20059;-66
2022/01/10 00:55:48;;;;;;;4.32;3.38;;;;;;;2.12;69.26;98370.56;5087106;28;20208;-66
2022/01/10 00:58:17;;;;;;;4.85;3.15;;;;;;;2.12;69.63;98368.81;5087026;28;20103;-66
2022/01/10 01:00:48;;;;;;;4.80;2.88;;;;;;;2.12;69.39;98371.41;5086986;28;20047;-66
2022/01/10 01:03:18;;;;;;;5.13;2.78;;;;;;;2.13;69.23;98378.34;5086878;28;20312;-66
2022/01/10 01:05:50;;;;;;;4.47;2.90;;;;;;;2.12;69.71;98371.41;5086900;28;20040;-66
2022/01/10 01:08:18;;;;;;;5.43;3.30;;;;;;;2.12;69.64;98376.63;5086885;28;20040;-66
2022/01/10 01:13:52;;;;;;;6.40;4.22;;;;;;;2.12;69.57;98378.41;5084428;28;20053;-66
2022/01/10 01:16:43;;;;;;;5.18;3.72;;;;;;;2.10;69.39;98388.06;5086079;28;20262;-66
2022/01/10 01:25:06;;;;;;;4.75;3.22;;;;;;;2.13;69.27;98382.72;5028857;28;20298;-66
2022/01/10 01:27:38;;;;;;;6.05;3.58;;;;;;;2.15;69.23;98381.75;5080176;28;20063;-66
2022/01/10 01:30:12;;;;;;;4.03;2.85;;;;;;;2.15;69.27;98380.91;5086373;28;20090;-67
2022/01/10 01:32:44;;;;;;;5.60;2.75;;;;;;;2.16;69.09;98383.47;5086355;28;20137;-67
2022/01/10 01:35:16;;;;;;;4.88;3.17;;;;;;;2.16;69.07;98390.44;5086340;28;20037;-66
2022/01/10 01:37:49;;;;;;;5.63;3.25;;;;;;;2.14;69.51;98385.28;5086550;28;20040;-67
2022/01/10 01:40:26;;;;;;;5.22;3.10;;;;;;;2.15;69.10;98388.75;5086474;28;20102;-67
2022/01/10 01:42:58;;;;;;;8.05;4.32;;;;;;;2.14;69.33;98387.91;5086360;28;20040;-66
2022/01/10 01:45:39;;;;;;;6.30;3.13;;;;;;;2.13;69.58;98396.66;5086394;28;20044;-66
2022/01/10 01:48:12;;;;;;;6.75;3.38;;;;;;;2.12;69.18;98394.94;5086094;28;20044;-66
2022/01/10 01:50:45;;;;;;;4.72;3.25;;;;;;;2.14;69.12;98398.34;5086013;28;20063;-66
2022/01/10 01:53:19;;;;;;;5.28;3.17;;;;;;;2.11;69.53;98397.59;5085819;28;20056;-67
2022/01/10 01:55:48;;;;;;;6.30;3.33;;;;;;;2.14;69.20;98400.13;5085917;28;20044;-67
2022/01/10 01:58:18;;;;;;;5.80;3.35;;;;;;;2.17;69.14;98400.00;5085934;28;20086;-66
2022/01/10 02:00:49;;;;;;;4.55;3.15;;;;;;;2.15;68.94;98402.66;5085898;28;20036;-66
2022/01/10 02:03:18;;;;;;;4.38;3.13;;;;;;;2.18;68.82;98402.56;5085718;28;20225;-67
2022/01/10 02:05:48;;;;;;;6.00;3.58;;;;;;;2.17;68.88;98408.69;5085815;28;20036;-66
2022/01/10 02:08:20;;;;;;;6.40;4.25;;;;;;;2.17;69.04;98416.53;5085770;28;20037;-66
2022/01/10 02:10:49;;;;;;;5.30;3.20;;;;;;;2.18;68.97;98412.16;5086015;28;20041;-66
2022/01/10 02:13:19;;;;;;;6.40;2.67;;;;;;;2.19;68.93;98413.88;5086042;28;20067;-65
2022/01/10 02:15:56;;;;;;;5.47;3.58;;;;;;;2.20;69.06;98412.97;5085958;28;20051;-66
2022/01/10 02:18:25;;;;;;;5.18;3.30;;;;;;;2.18;68.92;98418.25;5085171;28;20048;-66
2022/01/10 02:21:00;;;;;;;5.57;3.20;;;;;;;2.17;69.10;98411.31;5085889;28;20082;-66
2022/01/10 02:23:33;;;;;;;6.53;3.08;;;;;;;2.17;69.28;98419.16;5085501;28;20041;-66
2022/01/10 02:26:05;;;;;;;3.75;2.85;;;;;;;2.19;69.14;98432.16;5085828;28;20190;-66
2022/01/10 02:28:38;;;;;;;5.28;2.85;;;;;;;2.18;69.09;98420.84;5084744;28;20048;-66
2022/01/10 02:31:10;;;;;;;4.97;2.85;;;;;;;2.17;69.34;98423.53;5085543;28;20091;-66
2022/01/10 02:33:42;;;;;;;5.05;2.67;;;;;;;2.17;69.36;98427.00;5084722;28;20096;-66
2022/01/10 02:36:22;;;;;;;6.93;2.95;;;;;;;2.16;69.47;98425.28;5085464;28;20044;-66
2022/01/10 02:38:56;;;;;;;5.00;2.65;;;;;;;2.17;69.19;98424.38;5085694;28;20044;-66
2022/01/10 02:41:31;;;;;;;5.50;3.10;;;;;;;2.17;69.26;98421.75;5085438;28;20247;-66
2022/01/10 02:44:05;;;;;;;4.72;2.60;;;;;;;2.19;69.25;98422.56;5085613;28;20048;-66
2022/01/10 02:46:38;;;;;;;5.13;3.05;;;;;;;1.94;69.36;98394.75;5085694;28;20086;-66
2022/01/10 02:49:12;;;;;;;3.88;2.78;;;;;;;2.19;69.03;98419.94;5085660;28;20094;-66
2022/01/10 02:51:45;;;;;;;5.75;3.15;;;;;;;2.17;69.31;98421.75;5085571;28;20040;-66
2022/01/10 02:54:18;;;;;;;7.22;4.25;;;;;;;2.18;69.25;98426.09;5085135;28;20358;-66
2022/01/10 02:56:52;;;;;;;4.57;3.28;;;;;;;2.22;68.77;98429.44;5085266;28;20037;-66
2022/01/10 02:59:26;;;;;;;5.43;3.30;;;;;;;2.23;68.62;98431.16;5085273;28;20045;-66
2022/01/10 03:01:58;;;;;;;4.75;2.60;;;;;;;2.23;68.80;98425.91;5085494;28;20044;-66
2022/01/10 03:04:30;;;;;;;4.95;2.83;;;;;;;2.21;68.96;98433.81;5085127;28;20062;-66
2022/01/10 03:07:04;;;;;;;5.47;3.28;;;;;;;2.03;68.92;98404.88;5085189;28;20047;-66
2022/01/10 03:09:37;;;;;;;4.32;3.13;;;;;;;2.22;68.85;98439.91;5085139;28;20040;-66
2022/01/10 03:12:10;;;;;;;7.50;3.45;;;;;;;2.23;68.69;98439.00;5085404;28;20044;-65
2022/01/10 03:14:42;;;;;;;4.88;3.05;;;;;;;2.23;68.68;98445.06;5085104;28;20090;-66
2022/01/10 03:17:15;;;;;;;5.88;3.47;;;;;;;2.23;68.61;98447.69;5085135;28;20041;-66
2022/01/10 03:19:47;;;;;;;5.47;3.20;;;;;;;2.00;68.85;98424.13;5085039;28;20040;-66
2022/01/10 03:22:21;;;;;;;5.47;3.33;;;;;;;1.27;68.74;98309.13;5085330;28;20040;-66
2022/01/10 03:24:53;;;;;;;4.35;2.85;;;;;;;2.23;68.82;98452.06;5085218;28;20090;-66
2022/01/10 03:27:25;;;;;;;5.20;3.58;;;;;;;2.23;68.83;98460.75;5085277;28;20041;-66
2022/01/10 03:29:57;;;;;;;5.15;3.28;;;;;;;2.22;68.82;98450.34;5085205;28;20086;-66
2022/01/10 03:32:29;;;;;;;5.63;3.45;;;;;;;2.22;68.77;98466.91;5084949;28;20082;-66
2022/01/10 03:35:02;;;;;;;7.32;3.63;;;;;;;2.22;68.65;98466.91;5084925;28;20335;-66
2022/01/10 03:37:35;;;;;;;5.45;3.10;;;;;;;2.23;68.67;98475.59;5085213;28;20148;-65
2022/01/10 03:40:08;;;;;;;5.97;3.03;;;;;;;2.22;68.60;98472.13;5088298;28;20228;-66
2022/01/10 03:42:41;;;;;;;4.65;3.08;;;;;;;2.22;68.57;98477.34;5088781;28;20081;-66
2022/01/10 03:45:13;;;;;;;5.82;3.50;;;;;;;2.21;68.87;98480.88;5088406;28;20182;-66
2022/01/10 03:47:46;;;;;;;8.35;3.35;;;;;;;2.22;68.73;98482.59;5088639;28;20045;-66
2022/01/10 03:50:18;;;;;;;5.38;3.05;;;;;;;2.25;68.78;98486.84;5088335;28;20040;-65
2022/01/10 03:52:52;;;;;;;7.53;3.90;;;;;;;2.26;68.68;98498.16;5088423;28;20098;-66
2022/01/10 03:55:24;;;;;;;5.65;3.25;;;;;;;2.23;69.05;98499.97;5088499;28;20048;-66
2022/01/10 03:57:56;;;;;;;7.13;3.50;;;;;;;2.22;69.22;98498.28;5088238;28;20044;-66
2022/01/10 04:00:29;;;;;;;8.95;3.38;;;;;;;2.21;69.40;98504.41;5088552;28;20289;-66
2022/01/10 04:03:05;;;;;;;7.22;3.25;;;;;;;2.21;69.57;98514.00;5088470;28;20146;-66
2022/01/10 04:05:37;;;;;;;5.68;3.33;;;;;;;2.15;70.35;98507.22;5088247;28;20053;-66
2022/01/10 04:08:12;;;;;;;6.38;3.50;;;;;;;2.14;70.57;98513.38;5088426;28;20044;-66
2022/01/10 04:10:44;;;;;;;6.45;3.78;;;;;;;2.14;70.46;98510.75;5088305;28;20048;-66
2022/01/10 04:13:16;;;;;;;4.60;3.22;;;;;;;1.91;70.43;98474.09;5087986;28;20086;-66
2022/01/10 04:15:48;;;;;;;6.10;3.80;;;;;;;2.16;70.52;98521.16;5088225;28;20044;-66
2022/01/10 04:18:21;;;;;;;5.30;3.33;;;;;;;2.17;70.24;98517.63;5088124;28;20040;-66
2022/01/10 04:20:53;;;;;;;5.95;3.85;;;;;;;2.16;70.48;98529.84;5088112;28;20044;-66
2022/01/10 04:23:27;;;;;;;6.00;3.70;;;;;;;2.16;70.34;98534.22;5088082;28;20041;-66
2022/01/10 04:25:56;;;;;;;9.50;3.67;;;;;;;1.92;70.56;98504.56;5087858;28;20044;-65
2022/01/10 04:28:26;;;;;;;5.78;3.92;;;;;;;2.13;70.96;98536.94;5087950;28;20119;-66
2022/01/10 04:30:56;;;;;;;5.45;3.50;;;;;;;2.13;71.09;98544.78;5087639;28;20355;-66
2022/01/10 04:33:29;;;;;;;5.60;3.70;;;;;;;2.11;71.26;98542.22;5087587;28;20075;-66
2022/01/10 04:35:58;;;;;;;6.25;3.40;;;;;;;1.34;71.34;98446.38;5087669;28;20120;-66
2022/01/10 04:38:28;;;;;;;5.57;3.60;;;;;;;2.10;71.24;98540.50;5087797;28;20103;-66
2022/01/10 04:40:57;;;;;;;7.43;3.60;;;;;;;2.07;71.49;98539.75;5087733;28;20331;-66
2022/01/10 04:43:27;;;;;;;5.15;3.78;;;;;;;2.05;71.53;98550.28;5087343;28;20041;-66
2022/01/10 04:45:57;;;;;;;6.40;3.47;;;;;;;2.09;70.93;98551.03;5087216;28;20044;-66
2022/01/10 04:48:28;;;;;;;5.75;3.90;;;;;;;2.13;70.85;98544.78;5087552;28;20060;-66
2022/01/10 04:51:15;;;;;;;6.07;3.42;;;;;;;2.14;70.61;98554.34;5086545;28;20338;-66
2022/01/10 04:53:51;;;;;;;5.35;3.38;;;;;;;2.10;70.88;98560.56;5086882;28;20370;-66
2022/01/10 04:56:23;;;;;;;4.63;2.90;;;;;;;2.12;70.86;98562.22;5087385;28;20044;-66
2022/01/10 04:58:55;;;;;;;5.10;3.30;;;;;;;2.14;70.71;98568.25;5087354;28;20277;-66
2022/01/10 05:01:27;;;;;;;10.43;3.80;;;;;;;2.13;71.05;98571.78;5086233;28;20048;-66
2022/01/10 05:03:59;;;;;;;6.25;4.18;;;;;;;2.13;70.67;98574.41;5086987;28;20239;-66
2022/01/10 05:06:32;;;;;;;30.70;20.17;;;;;;;2.16;71.42;98578.66;5086846;28;20101;-66
2022/01/10 05:09:05;;;;;;;14.10;9.82;;;;;;;2.17;71.45;98578.63;5086886;28;20086;-66
2022/01/10 05:11:39;;;;;;;15.02;10.60;;;;;;;2.20;71.82;98578.50;5087097;28;20040;-66
2022/01/10 05:14:12;;;;;;;7.45;5.80;;;;;;;2.19;71.63;98575.94;5086760;28;20044;-66
2022/01/10 05:16:45;;;;;;;8.48;4.50;;;;;;;2.11;71.98;98585.81;5086932;28;20048;-66
2022/01/10 05:19:17;;;;;;;6.05;3.40;;;;;;;0.56;71.56;98333.22;5086563;28;20082;-66
2022/01/10 05:21:49;;;;;;;7.20;4.47;;;;;;;2.05;71.78;98594.72;5086612;28;20107;-66
2022/01/10 05:24:23;;;;;;;6.82;3.78;;;;;;;2.06;71.80;98593.81;5086553;28;20243;-67
2022/01/10 05:26:55;;;;;;;7.18;4.30;;;;;;;2.07;71.67;98605.13;5085643;28;20070;-65
2022/01/10 05:29:27;;;;;;;4.68;4.18;;;;;;;2.01;72.04;98605.31;5086689;28;20048;-66
2022/01/10 05:32:00;;;;;;;6.22;3.63;;;;;;;2.02;71.83;98602.66;5086707;28;20091;-66
2022/01/10 05:34:32;;;;;;;7.18;4.03;;;;;;;1.99;72.34;98607.97;5086274;28;20045;-65
2022/01/10 05:37:04;;;;;;;5.82;3.67;;;;;;;2.04;71.74;98606.06;5086549;28;20056;-66
2022/01/10 05:39:38;;;;;;;6.03;3.85;;;;;;;2.00;71.73;98601.84;5086254;28;20044;-66
2022/01/10 05:42:10;;;;;;;6.78;3.75;;;;;;;2.07;71.65;98612.94;5086243;28;20040;-66
2022/01/10 05:44:42;;;;;;;6.55;4.68;;;;;;;2.07;71.69;98611.19;5086232;28;20248;-65
2022/01/10 05:47:15;;;;;;;5.90;4.28;;;;;;;2.04;71.79;98613.91;5086066;28;20044;-67
2022/01/10 05:49:48;;;;;;;7.05;4.15;;;;;;;2.00;71.88;98617.53;5086096;28;20048;-66
2022/01/10 05:52:21;;;;;;;5.05;3.83;;;;;;;2.02;71.98;98620.94;5086192;28;20086;-66
2022/01/10 05:54:54;;;;;;;6.95;5.13;;;;;;;1.99;72.19;98625.41;5085896;28;20064;-65
2022/01/10 05:57:26;;;;;;;5.70;3.92;;;;;;;1.99;72.09;98628.88;5085943;28;20044;-66
2022/01/10 05:59:59;;;;;;;5.18;4.13;;;;;;;1.95;72.33;98615.97;5085251;28;20044;-66
2022/01/10 06:02:31;;;;;;;6.72;4.20;;;;;;;1.92;72.43;98637.81;5085489;28;20134;-66
2022/01/10 06:05:08;;;;;;;6.60;3.83;;;;;;;1.95;72.09;98645.56;5085992;28;20045;-65
2022/01/10 06:07:41;;;;;;;7.53;4.22;;;;;;;1.95;72.03;98639.47;5085738;28;20090;-66
2022/01/10 06:10:15;;;;;;;6.10;4.22;;;;;;;1.49;71.78;98567.75;5085911;28;20094;-66
2022/01/10 06:12:47;;;;;;;5.50;3.97;;;;;;;1.87;72.64;98648.41;5085899;28;20284;-66
2022/01/10 06:15:19;;;;;;;6.18;4.40;;;;;;;1.89;72.64;98650.97;5085582;28;20037;-66
2022/01/10 06:17:51;;;;;;;5.43;3.58;;;;;;;1.92;72.13;98656.13;5085808;28;20037;-66
2022/01/10 06:20:24;;;;;;;6.07;4.03;;;;;;;1.74;71.96;98623.56;5085491;28;20040;-66
2022/01/10 06:22:56;;;;;;;7.47;4.65;;;;;;;1.90;72.24;98660.53;5085572;28;20082;-66
2022/01/10 06:25:30;;;;;;;6.30;4.07;;;;;;;1.90;72.36;98669.22;5085422;28;20041;-66
2022/01/10 06:28:03;;;;;;;10.52;4.25;;;;;;;1.92;72.08;98665.72;5085717;28;20086;-66
2022/01/10 06:30:36;;;;;;;9.25;4.78;;;;;;;1.11;72.04;98582.81;5085394;28;20041;-66
2022/01/10 06:33:08;;;;;;;8.02;4.47;;;;;;;1.94;71.70;98675.22;5085477;28;20044;-67
2022/01/10 06:35:40;;;;;;;5.10;4.10;;;;;;;1.96;71.86;98683.00;5085647;28;20052;-66
2022/01/10 06:38:12;;;;;;;7.60;3.40;;;;;;;1.84;71.60;98668.56;5085202;28;20040;-66
2022/01/10 06:40:46;;;;;;;9.10;5.53;;;;;;;1.98;71.64;98689.03;5085580;28;20056;-66
2022/01/10 06:43:18;;;;;;;7.55;4.38;;;;;;;1.99;71.52;98694.22;5085456;28;20044;-65
2022/01/10 06:45:50;;;;;;;7.05;3.63;;;;;;;1.69;71.61;98646.38;5085156;28;20048;-66
2022/01/10 06:48:22;;;;;;;6.85;3.92;;;;;;;2.03;71.01;98701.06;5085395;28;20048;-66
2022/01/10 06:50:55;;;;;;;6.93;4.35;;;;;;;2.03;71.28;98706.28;5085154;28;20041;-66
2022/01/10 06:53:28;;;;;;;6.18;4.05;;;;;;;2.01;71.13;98702.88;5085113;28;20098;-66
2022/01/10 06:56:01;;;;;;;8.77;3.63;;;;;;;1.87;70.89;98698.06;5085358;28;20109;-66
2022/01/10 06:58:33;;;;;;;6.28;4.55;;;;;;;2.13;70.85;98722.53;5085102;28;20044;-66
2022/01/10 07:01:06;;;;;;;6.20;3.60;;;;;;;2.12;70.87;98732.16;5085331;28;20048;-66
2022/01/10 07:03:36;;;;;;;5.07;3.70;;;;;;;2.15;70.66;98725.97;5085299;28;20068;-66
2022/01/10 07:06:06;;;;;;;6.00;3.78;;;;;;;2.12;70.78;98734.75;5085016;28;20052;-65
2022/01/10 07:08:36;;;;;;;8.30;4.45;;;;;;;2.14;70.48;98738.19;5085148;28;20339;-65
2022/01/10 07:11:08;;;;;;;5.88;4.28;;;;;;;2.16;70.39;98743.38;5085338;28;20045;-66
2022/01/10 07:13:37;;;;;;;5.50;3.55;;;;;;;1.66;70.48;98663.91;5086228;28;20060;-66
2022/01/10 07:16:07;;;;;;;11.18;5.30;;;;;;;2.16;70.43;98746.84;5088921;28;20051;-66
2022/01/10 07:18:37;;;;;;;11.38;4.50;;;;;;;2.13;70.61;98757.38;5088991;28;20115;-66
2022/01/10 07:21:08;;;;;;;7.43;4.50;;;;;;;1.84;70.36;98708.63;5088781;28;20208;-66
2022/01/10 07:23:38;;;;;;;5.40;3.53;;;;;;;2.18;70.51;98765.94;5088822;28;20040;-66
2022/01/10 07:26:10;;;;;;;8.25;3.83;;;;;;;1.33;70.70;98648.31;5088590;28;20044;-66
2022/01/10 07:28:39;;;;;;;8.77;4.57;;;;;;;2.23;70.54;98779.72;5088778;28;20044;-66
2022/01/10 07:31:09;;;;;;;5.80;4.28;;;;;;;2.25;70.34;98778.81;5088587;28;20320;-65
2022/01/10 07:33:39;;;;;;;6.05;4.07;;;;;;;2.28;70.30;98784.81;5088520;28;20064;-66
2022/01/10 07:36:09;;;;;;;6.38;4.28;;;;;;;2.29;70.45;98794.38;5088113;28;20103;-66
2022/01/10 07:38:39;;;;;;;5.60;4.15;;;;;;;0.96;70.43;98571.97;5088392;28;20041;-66
2022/01/10 07:41:11;;;;;;;6.88;5.45;;;;;;;2.29;70.67;98806.59;5087574;28;20067;-65
2022/01/10 07:43:40;;;;;;;5.53;4.45;;;;;;;2.29;71.00;98799.59;5088523;28;20041;-65
2022/01/10 07:46:11;;;;;;;11.38;4.97;;;;;;;2.27;71.60;98804.03;5088496;28;20100;-66
2022/01/10 07:48:43;;;;;;;9.40;4.90;;;;;;;2.27;72.17;98811.88;5088230;28;20045;-66
2022/01/10 07:51:16;;;;;;;9.85;5.10;;;;;;;2.24;72.43;98804.13;5088469;28;20090;-66
2022/01/10 07:53:46;;;;;;;9.35;4.75;;;;;;;2.20;72.72;98820.81;5087226;28;20167;-66
2022/01/10 07:56:18;;;;;;;7.45;4.88;;;;;;;1.32;72.42;98672.69;5087950;28;20040;-67
2022/01/10 07:58:50;;;;;;;9.90;6.00;;;;;;;2.21;72.89;98830.34;5088238;28;20044;-67
2022/01/10 08:01:24;;;;;;;6.40;4.60;;;;;;;2.20;73.26;98831.25;5088235;28;20045;-67
2022/01/10 08:03:56;;;;;;;7.15;4.70;;;;;;;2.20;73.15;98839.09;5088127;28;20137;-67
2022/01/10 08:06:28;;;;;;;6.00;4.22;;;;;;;2.17;73.57;98839.19;5088173;28;20040;-66
2022/01/10 08:09:00;;;;;;;7.93;4.85;;;;;;;2.17;73.77;98847.88;5088253;28;20044;-66
2022/01/10 08:11:34;;;;;;;9.80;5.00;;;;;;;2.15;73.92;98852.31;5087854;28;20047;-66
2022/01/10 08:14:06;;;;;;;9.18;4.68;;;;;;;0.52;73.77;98581.91;5087855;28;20087;-67
2022/01/10 08:16:38;;;;;;;8.73;5.00;;;;;;;1.85;73.65;98795.69;5087782;28;20044;-67
2022/01/10 08:19:10;;;;;;;9.43;4.78;;;;;;;2.14;73.84;98854.97;5087624;28;20082;-66
2022/01/10 08:21:42;;;;;;;6.95;4.18;;;;;;;2.15;74.00;98854.06;5088040;28;20041;-66
2022/01/10 08:24:15;;;;;;;5.32;4.30;;;;;;;2.15;73.97;98852.31;5087537;28;20086;-66
2022/01/10 08:26:48;;;;;;;7.93;5.07;;;;;;;2.14;74.40;98862.81;5087712;28;20041;-66
2022/01/10 08:29:20;;;;;;;7.05;4.88;;;;;;;2.14;74.33;98862.81;5087696;28;20098;-66
2022/01/10 08:31:53;;;;;;;6.65;5.30;;;;;;;2.12;74.59;98865.47;5087976;28;20044;-66
2022/01/10 08:34:25;;;;;;;8.68;5.47;;;;;;;2.13;74.18;98867.19;5087648;28;20231;-66
2022/01/10 08:36:57;;;;;;;6.32;4.80;;;;;;;2.15;74.13;98875.84;5088834;28;20093;-66
2022/01/10 08:39:30;;;;;;;8.32;5.93;;;;;;;-2.00;73.75;98178.91;5087375;28;20044;-66
2022/01/10 08:42:04;;;;;;;6.40;4.95;;;;;;;2.17;74.57;98879.25;5087720;28;20041;-66
2022/01/10 08:44:37;;;;;;;8.23;6.13;;;;;;;1.94;74.41;98842.47;5087020;28;20040;-66
2022/01/10 08:47:09;;;;;;;7.43;4.75;;;;;;;0.96;74.59;98682.41;5087375;28;20395;-66
2022/01/10 08:49:42;;;;;;;8.27;5.07;;;;;;;2.20;74.42;98900.09;5087548;28;20048;-66
2022/01/10 08:52:15;;;;;;;7.68;4.57;;;;;;;2.18;74.01;98895.81;5088062;28;20044;-66
2022/01/10 08:54:49;;;;;;;8.90;4.93;;;;;;;1.98;74.17;98859.78;5087097;28;20098;-67
2022/01/10 08:57:22;;;;;;;5.45;4.15;;;;;;;2.19;74.23;98911.44;5086996;28;20063;-66
2022/01/10 08:59:54;;;;;;;6.30;4.28;;;;;;;2.20;74.67;98912.31;5086448;28;20041;-66
2022/01/10 09:02:27;;;;;;;8.30;4.97;;;;;;;2.20;74.33;98920.16;5086909;28;20094;-66
2022/01/10 09:04:59;;;;;;;8.10;4.78;;;;;;;2.19;74.63;98927.13;5087018;28;20048;-66
2022/01/10 09:07:31;;;;;;;8.80;5.68;;;;;;;2.17;74.62;98928.94;5086987;28;20044;-66
2022/01/10 09:10:04;;;;;;;6.68;4.75;;;;;;;2.18;74.86;98935.88;5087092;28;20335;-66
2022/01/10 09:12:38;;;;;;;7.00;4.90;;;;;;;2.18;74.81;98935.03;5086643;28;20044;-66
2022/01/10 09:15:13;;;;;;;8.23;5.07;;;;;;;2.16;75.25;98936.81;5085845;28;20048;-65
2022/01/10 09:17:45;;;;;;;7.93;5.68;;;;;;;2.19;75.03;98939.34;5085607;28;20236;-66
2022/01/10 09:20:18;;;;;;;6.72;5.20;;;;;;;2.19;74.77;98934.97;5086624;28;20289;-66
2022/01/10 09:22:50;;;;;;;6.50;5.05;;;;;;;2.20;74.56;98943.69;5086783;28;20082;-66
2022/01/10 09:25:23;;;;;;;8.38;4.93;;;;;;;2.20;74.69;98952.38;5086683;28;20040;-66
2022/01/10 09:27:56;;;;;;;7.03;4.80;;;;;;;0.76;74.91;98706.41;5086597;28;20045;-66
2022/01/10 09:30:28;;;;;;;6.80;4.40;;;;;;;2.19;74.56;98950.66;5086291;28;20041;-66
2022/01/10 09:33:01;;;;;;;8.70;4.75;;;;;;;2.20;75.12;98952.38;5085187;28;20040;-66
2022/01/10 09:35:33;;;;;;;6.57;5.68;;;;;;;2.19;74.83;98955.03;5086058;28;20040;-66
2022/01/10 09:38:05;;;;;;;6.72;5.47;;;;;;;2.22;74.71;98953.19;5085873;28;20097;-66
2022/01/10 09:40:37;;;;;;;7.50;4.78;;;;;;;2.23;74.77;98959.28;5086175;28;20082;-66
2022/01/10 09:43:11;;;;;;;7.38;5.07;;;;;;;2.26;74.36;98955.72;5086124;28;20044;-67
2022/01/10 09:45:45;;;;;;;6.70;4.82;;;;;;;2.26;74.82;98953.97;5086064;28;20051;-66
2022/01/10 09:48:17;;;;;;;9.68;5.22;;;;;;;2.30;74.61;98966.06;5086126;28;20049;-66
2022/01/10 09:50:49;;;;;;;7.40;5.78;;;;;;;2.30;75.00;98965.19;5085790;28;20048;-66
2022/01/10 09:53:22;;;;;;;6.90;5.88;;;;;;;2.31;74.73;98967.78;5085946;28;20102;-65
2022/01/10 09:55:55;;;;;;;7.47;5.85;;;;;;;2.32;74.41;98974.72;5086105;28;20048;-66
2022/01/10 09:58:29;;;;;;;9.00;6.13;;;;;;;2.35;74.60;98979.88;5085778;28;20102;-65
2022/01/10 10:01:03;;;;;;;9.05;6.45;;;;;;;0.71;74.36;98692.63;5086155;28;20041;-66
2022/01/10 10:03:36;;;;;;;11.50;8.82;;;;;;;2.37;74.50;98979.81;5086134;28;20045;-66
2022/01/10 10:06:08;;;;;;;9.77;6.72;;;;;;;2.37;74.75;98977.22;5085776;28;20300;-66
2022/01/10 10:08:41;;;;;;;8.60;6.18;;;;;;;2.40;74.93;98977.13;5085706;28;20351;-65
2022/01/10 10:11:13;;;;;;;10.52;7.03;;;;;;;2.42;75.23;98983.16;5085756;28;20048;-66
2022/01/10 10:13:52;;;;;;;12.82;7.55;;;;;;;2.44;74.78;98990.06;5085750;28;20293;-66
2022/01/10 10:16:21;;;;;;;9.75;6.88;;;;;;;2.47;74.61;98981.28;5085450;28;20056;-65
2022/01/10 10:18:51;;;;;;;8.35;6.82;;;;;;;2.48;75.43;98981.22;5085216;28;20292;-66
2022/01/10 10:21:21;;;;;;;9.43;6.70;;;;;;;2.51;74.80;98980.28;5084884;28;20044;-65
2022/01/10 10:23:51;;;;;;;11.25;8.23;;;;;;;2.49;74.93;98980.34;5085291;28;20296;-65
2022/01/10 10:26:24;;;;;;;11.88;8.75;;;;;;;2.52;74.42;98989.84;5085452;28;20036;-66
2022/01/10 10:28:58;;;;;;;9.07;7.70;;;;;;;1.49;74.81;98837.59;5084164;28;20099;-66
2022/01/10 10:31:29;;;;;;;9.57;7.70;;;;;;;2.53;74.97;98994.19;5085126;28;20028;-65
2022/01/10 10:33:57;;;;;;;11.65;7.93;;;;;;;2.54;75.02;98994.13;5085108;28;20056;-66
2022/01/10 10:36:29;;;;;;;11.85;7.43;;;;;;;1.86;74.26;98876.66;5085426;28;20111;-66
2022/01/10 10:38:56;;;;;;;10.82;7.43;;;;;;;-2.02;74.59;98228.28;5084497;28;20109;-66
2022/01/10 10:41:27;;;;;;;9.40;7.60;;;;;;;2.60;74.84;99003.56;5084206;28;20040;-66
2022/01/10 10:43:58;;;;;;;11.52;7.63;;;;;;;2.63;74.59;99006.09;5084901;28;20040;-66
2022/01/10 10:46:28;;;;;;;10.95;7.95;;;;;;;2.62;74.25;99009.63;5085071;28;20086;-66
2022/01/10 10:49:03;;;;;;;11.18;8.00;;;;;;;2.64;74.63;99015.66;5086583;28;20104;-66
2022/01/10 10:51:38;;;;;;;10.32;8.32;;;;;;;2.62;74.60;99014.84;5089658;28;20044;-65
2022/01/10 10:54:11;;;;;;;10.07;7.18;;;;;;;2.39;74.24;98978.88;5088799;28;20102;-66
2022/01/10 10:56:43;;;;;;;11.93;8.63;;;;;;;2.63;74.45;99024.41;5088817;28;20288;-66
2022/01/10 10:59:17;;;;;;;8.63;7.30;;;;;;;2.63;74.52;99023.56;5089271;28;20052;-66
2022/01/10 11:01:51;;;;;;;10.80;9.15;;;;;;;1.17;74.33;98775.78;5089445;28;20293;-66
2022/01/10 11:04:23;;;;;;;12.32;10.38;;;;;;;2.65;74.55;99033.06;5089186;28;20078;-66
2022/01/10 11:06:56;;;;;;;11.32;7.65;;;;;;;2.64;74.12;99033.97;5088622;28;20079;-66
2022/01/10 11:09:29;;;;;;;11.70;8.40;;;;;;;2.34;74.45;98982.53;5088835;28;20048;-66
2022/01/10 11:12:01;;;;;;;11.82;8.23;;;;;;;2.16;74.40;98963.81;5087705;28;20040;-66
2022/01/10 11:14:35;;;;;;;8.43;7.05;;;;;;;2.61;74.58;99044.53;5088817;28;20044;-65
2022/01/10 11:17:07;;;;;;;11.13;7.22;;;;;;;2.64;74.44;99039.22;5088811;28;20048;-66
2022/01/10 11:19:39;;;;;;;10.05;8.68;;;;;;;2.65;74.76;99043.53;5088684;28;20228;-66
2022/01/10 11:22:12;;;;;;;12.43;9.32;;;;;;;2.46;74.80;99005.72;5088664;28;20040;-66
2022/01/10 11:24:48;;;;;;;12.57;9.40;;;;;;;2.67;74.91;99038.25;5088454;28;20040;-66
2022/01/10 11:27:29;;;;;;;12.23;9.73;;;;;;;2.69;75.27;99041.69;5088312;28;20090;-66
2022/01/10 11:30:28;;;;;;;10.88;7.50;;;;;;;2.68;75.37;99040.84;5088890;28;20045;-66
2022/01/10 11:33:04;;;;;;;12.00;7.70;;;;;;;2.66;74.71;99041.78;5088221;28;20257;-66
2022/01/10 11:35:38;;;;;;;10.20;7.63;;;;;;;2.63;75.08;99047.97;5088776;28;20098;-66
2022/01/10 11:38:23;;;;;;;13.98;8.93;;;;;;;1.31;75.24;98825.03;5088665;28;20296;-66
2022/01/10 11:40:59;;;;;;;12.68;7.95;;;;;;;2.59;75.53;99045.47;5088078;28;20044;-67
2022/01/10 11:43:36;;;;;;;10.93;7.30;;;;;;;2.62;75.27;99043.63;5089146;28;20048;-66
2022/01/10 11:46:13;;;;;;;9.52;7.63;;;;;;;2.55;75.36;99047.31;5088324;28;20086;-66
2022/01/10 11:48:49;;;;;;;10.38;7.55;;;;;;;2.54;74.96;99084.84;5088187;28;20048;-67
2022/01/10 11:51:23;;;;;;;10.95;7.60;;;;;;;2.60;75.10;99049.81;5088327;28;20041;-66
2022/01/10 11:53:52;;;;;;;10.45;7.85;;;;;;;2.55;75.33;99052.53;5088101;28;20101;-66
2022/01/10 11:56:29;;;;;;;7.80;6.47;;;;;;;2.53;76.13;99049.97;5088141;28;20078;-66
2022/01/10 11:59:13;;;;;;;11.27;7.40;;;;;;;2.50;76.08;99047.44;5087846;28;20055;-67
2022/01/10 12:01:51;;;;;;;10.73;7.70;;;;;;;2.52;75.86;99056.09;5088188;28;20041;-66
2022/01/10 12:04:26;;;;;;;11.25;8.35;;;;;;;2.55;75.62;99049.94;5088183;28;20040;-66
2022/01/10 12:06:58;;;;;;;11.25;7.80;;;;;;;2.56;75.88;99051.66;5087904;28;20049;-65
2022/01/10 12:09:32;;;;;;;9.80;8.32;;;;;;;2.57;75.76;99060.34;5087835;28;20303;-66
2022/01/10 12:12:05;;;;;;;8.30;7.50;;;;;;;2.61;75.33;99060.22;5088019;28;20063;-66
2022/01/10 12:14:37;;;;;;;9.60;7.18;;;;;;;2.61;75.72;99054.13;5087770;28;20082;-66